Flight Track Log - Related Links

Times and Time Zones

All times are in EDT time to prevent confusion due to time zone crossing. See the CTL22 flight status page for this flight to view local times or setup timezone preferences in your user account.

Time Position Orientation Groundspeed Altitude Reporting Facility
EDT Latitude Longitude Course Direction KTS MPH feet Rate Location/Type
Fri 10:29:02 PM 41.8311 -82.2469 297° West 169 194 6,000  Level Cleveland Center
Fri 10:29:20 PM 41.8372 -82.2608 301° West 168 193 6,000  Level Cleveland Center
Fri 10:30:03 PM 41.8553 -82.3003 302° West 171 197 6,000 -100 Level Cleveland Center
Fri 10:30:20 PM 41.8592 -82.3172 287° West 168 193 5,900  Descending Cleveland Center
Fri 10:31:04 PM 41.8794 -82.3569 304° West 170 196 6,000 100 Climbing Cleveland Center
Fri 10:31:20 PM 41.8814 -82.3708 281° West 168 193 6,000  Level Cleveland Center
Fri 10:32:04 PM 41.8972 -82.4158 295° West 170 196 6,000  Level Cleveland Center
Fri 10:32:20 PM 41.9014 -82.4300 292° West 168 193 6,000  Level Cleveland Center
Fri 10:33:11 PM 41.9150 -82.4806 290° West 170 196 6,000  Level Cleveland Center
Fri 10:34:00 PM 41.8891 -82.6789 297° West  Level Estimated
Fri 10:34:12 PM 41.9350 -82.5369 296° West 167 192 6,000  Level Cleveland Center
Fri 10:35:06 PM 41.9550 -82.5908 297° West 171 197 6,000  Level Cleveland Center
Fri 10:36:13 PM 41.9767 -82.6500 296° West 171 197 6,000  Level Cleveland Center
Fri 10:37:01 PM 41.9925 -82.7008 293° West 168 193 6,000  Level Cleveland Center
Fri 10:37:20 PM 41.9964 -82.7178 287° West 173 199 6,000  Level Cleveland Center
Fri 10:38:02 PM 42.0103 -82.7603 294° West 169 194 6,000  Level Cleveland Center
Fri 10:38:57 PM 42.0300 -82.8111 298° West 170 196 6,000  Level Cleveland Center
Fri 10:39:57 PM 42.0497 -82.8706 294° West 171 197 6,000  Level Cleveland Center
Fri 10:40:58 PM 42.0653 -82.9297 290° West 171 197 6,000  Level Cleveland Center
Fri 10:41:59 PM 42.0847 -82.9894 294° West 171 197 6,000  Level Cleveland Center
Fri 10:43:05 PM 42.1042 -83.0544 292° West 170 196 6,000  Level Cleveland Center
Fri 10:44:12 PM 42.1258 -83.1197 294° West 169 194 6,000  Level Cleveland Center
Fri 10:45:13 PM 42.1453 -83.1764 295° West 169 194 6,000  Level Cleveland Center
Fri 10:46:32 PM 42.1708 -83.2503 295° West 170 196 6,000  Level Cleveland Center
Fri 10:47:39 PM 42.1942 -83.3186 295° West 170 196 6,000  Level Cleveland Center
Fri 10:48:39 PM 42.2114 -83.3783 291° West 171 197 6,000  Level Cleveland Center
Fri 10:49:40 PM 42.2311 -83.4325 296° West 170 196 6,000  Level Cleveland Center
Fri 10:50:40 PM 42.2503 -83.4922 293° West 170 196 6,000  Level Cleveland Center
Fri 10:51:35 PM 42.2678 -83.5492 293° West 172 198 6,000  Level Cleveland Center
Fri 10:52:36 PM 42.2869 -83.6061 294° West 174 200 6,000  Level Cleveland Center
Fri 10:53:37 PM 42.3083 -83.6689 295° West 172 198 6,000  Level Cleveland Center
Fri 10:54:31 PM 42.3256 -83.7231 293° West 171 197 6,000  Level Cleveland Center
Fri 10:55:32 PM 42.3450 -83.7803 295° West 171 197 6,000  Level Cleveland Center
Fri 10:56:39 PM 42.3658 -83.8461 293° West 173 199 6,000  Level Cleveland Center
Fri 10:57:27 PM 42.3811 -83.8947 293° West 171 197 6,000  Level Cleveland Center
Fri 10:58:28 PM 42.4003 -83.9575 292° West 173 199 6,000  Level Cleveland Center
Fri 11:00:00 PM 42.4237 -84.0478 289° West  Level FlightAware Approximate
Fri 11:06:00 PM 42.5397 -84.3919 294° West 173 199 6,000  Level Chicago Center
Fri 11:07:00 PM 42.5478 -84.4517 294° West  Level FlightAware Approximate
Fri 11:07:02 PM 42.5594 -84.4511 294° West 173 199 6,000  Level Chicago Center
Fri 11:08:00 PM 42.5663 -84.5090 294° West  Level FlightAware Approximate
Fri 11:08:02 PM 42.5781 -84.5094 293° West 171 197 6,000  Level Chicago Center
Fri 11:09:00 PM 42.5847 -84.5664 294° West  Level FlightAware Approximate
Fri 11:09:03 PM 42.5956 -84.5683 292° West 169 194 6,000  Level Chicago Center
Fri 11:10:00 PM 42.6031 -84.6238 294° West  Level FlightAware Approximate
Fri 11:10:04 PM 42.6186 -84.6392 294° West 171 197 6,000  Level Chicago Center
Fri 11:11:00 PM 42.6215 -84.6812 294° West  Level FlightAware Approximate
Fri 11:11:06 PM 42.6392 -84.6994 295° West 174 200 6,000  Level Chicago Center
Fri 11:12:07 PM 42.6561 -84.7586 291° West 172 198 6,000 49 Level Chicago Center
Fri 11:13:08 PM 42.6739 -84.8178 292° West 169 194 6,100  Climbing Chicago Center
Fri 11:14:09 PM 42.6922 -84.8781 292° West 172 198 6,000 -49 Descending Chicago Center
Fri 11:15:10 PM 42.7103 -84.9383 292° West 173 199 6,000  Level Chicago Center
Fri 11:16:11 PM 42.7286 -84.9983 293° West 172 198 6,000 -49 Level Chicago Center
Fri 11:17:12 PM 42.7478 -85.0581 294° West 173 199 5,900 -295 Descending Chicago Center
Fri 11:18:13 PM 42.7697 -85.1219 295° West 182 209 5,400 -541 Descending Chicago Center
Fri 11:19:14 PM 42.7903 -85.1872 293° West 187 215 4,800 -639 Descending Chicago Center
Fri 11:20:15 PM 42.8100 -85.2561 291° West 193 222 4,100 -689 Descending Chicago Center
Fri 11:21:16 PM 42.8303 -85.3261 292° West 197 227 3,400 -738 Descending Chicago Center
Fri 11:22:17 PM 42.8539 -85.4125 290° West 201 231 2,600 -934 Descending Chicago Center
Fri 11:23:18 PM 42.8744 -85.4808 292° West 199 229 1,500 -738 Descending Chicago Center
Fri 11:24:19 PM 42.8878 -85.5353 288° West 190 219 1,100 -393 Descending Chicago Center
Fri 11:26:00 PM 42.8808 -85.5228 270° West  Level Estimated

Login

Don't have an account? Register now (free) for customized features, flight alerts, and more!